createdAt,value
2022-10-16T00:01:30.170Z,100.00
2022-10-16T00:16:31.998Z,100.00
2022-10-16T00:31:33.621Z,100.00
2022-10-16T00:46:35.045Z,100.00
2022-10-16T01:01:36.668Z,100.00
2022-10-16T01:16:55.044Z,100.00
2022-10-16T01:32:09.771Z,100.00
2022-10-16T01:47:11.763Z,100.00
2022-10-16T02:02:14.325Z,99.23
2022-10-16T02:17:17.571Z,100.00
2022-10-16T02:32:21.485Z,100.00
2022-10-16T02:47:22.951Z,100.00
2022-10-16T03:02:24.712Z,100.00
2022-10-16T03:17:26.698Z,100.00
2022-10-16T03:32:29.634Z,93.48
2022-10-16T03:47:31.748Z,100.00
2022-10-16T04:02:33.245Z,100.00
2022-10-16T04:17:34.812Z,100.00
2022-10-16T04:32:36.316Z,100.00
2022-10-16T04:47:37.815Z,100.00
2022-10-16T05:02:39.282Z,95.70
2022-10-16T05:17:42.609Z,94.83
2022-10-16T05:32:49.897Z,92.44
2022-10-16T05:47:52.362Z,84.13
2022-10-16T06:02:54.539Z,86.48
2022-10-16T06:17:55.996Z,75.93
2022-10-16T06:32:57.454Z,74.06
2022-10-16T06:47:58.912Z,76.73
2022-10-16T07:03:00.372Z,71.90
2022-10-16T07:18:01.901Z,71.01
2022-10-16T07:33:03.400Z,60.95
2022-10-16T07:48:04.931Z,61.52
2022-10-16T08:03:06.437Z,59.24
2022-10-16T08:18:07.915Z,55.08
2022-10-16T08:33:09.467Z,52.90
2022-10-16T08:48:10.921Z,50.33
2022-10-16T09:03:18.588Z,48.11
2022-10-16T09:18:30.148Z,46.28
2022-10-16T09:33:36.349Z,43.88
2022-10-16T09:48:39.322Z,43.36
2022-10-16T10:03:42.088Z,43.26
2022-10-16T10:18:43.608Z,44.82
2022-10-16T10:33:52.202Z,41.85
2022-10-16T10:48:59.457Z,40.47
2022-10-16T11:04:25.828Z,40.37
2022-10-16T11:19:46.214Z,39.07
2022-10-16T11:34:53.315Z,37.04
2022-10-16T11:49:59.275Z,35.97
2022-10-16T12:05:19.495Z,35.90
2022-10-16T12:20:22.836Z,37.00
2022-10-16T12:35:26.471Z,35.95
2022-10-16T12:50:38.522Z,36.19
2022-10-16T13:05:43.117Z,34.72
2022-10-16T13:20:53.833Z,37.64
2022-10-16T13:35:56.382Z,38.14
2022-10-16T13:51:01.871Z,39.09
2022-10-16T14:06:04.850Z,40.09
2022-10-16T14:21:13.706Z,42.25
2022-10-16T14:36:16.617Z,42.38
2022-10-16T14:51:19.508Z,45.49
2022-10-16T15:06:21.044Z,46.85
2022-10-16T15:21:27.422Z,47.57
2022-10-16T15:36:30.053Z,49.79
2022-10-16T15:51:34.113Z,52.54
2022-10-16T16:06:38.588Z,53.32
2022-10-16T16:21:40.079Z,54.97
2022-10-16T16:36:41.630Z,59.87
2022-10-16T16:51:43.179Z,62.35
2022-10-16T17:06:44.699Z,66.58
2022-10-16T17:21:48.597Z,64.05
2022-10-16T17:36:50.133Z,59.63
2022-10-16T17:51:52.763Z,58.41
2022-10-16T18:06:56.161Z,55.09
2022-10-16T18:21:58.007Z,53.45
2022-10-16T18:36:59.762Z,53.35
2022-10-16T18:52:03.225Z,54.53
2022-10-16T19:07:04.713Z,55.86
2022-10-16T19:22:14.333Z,55.38
2022-10-16T19:37:15.912Z,57.88
2022-10-16T19:52:17.593Z,64.43
2022-10-16T20:07:19.168Z,73.37
2022-10-16T20:22:20.621Z,81.12
2022-10-16T20:37:22.082Z,80.80
2022-10-16T20:52:23.610Z,85.63
2022-10-16T21:07:25.452Z,90.82
2022-10-16T21:22:30.952Z,88.86
2022-10-16T21:37:33.089Z,91.73
2022-10-16T21:52:34.570Z,90.95
2022-10-16T22:16:07.590Z,98.27
2022-10-16T22:31:10.737Z,98.16
2022-10-16T22:46:14.200Z,97.63
2022-10-16T23:01:23.461Z,100.00
2022-10-16T23:16:25.445Z,100.00
2022-10-16T23:31:27.585Z,96.31
2022-10-16T23:46:29.062Z,100.00
